createdAt,value
2022-11-29T00:01:14.288Z,100239.22
2022-11-29T00:03:41.349Z,100237.41
2022-11-29T00:06:22.457Z,100240.81
2022-11-29T00:08:49.668Z,100243.34
2022-11-29T00:11:44.976Z,100233.78
2022-11-29T00:14:15.378Z,100234.56
2022-11-29T00:16:42.584Z,100233.56
2022-11-29T00:19:14.425Z,100232.66
2022-11-29T00:21:41.049Z,100232.53
2022-11-29T00:24:07.985Z,100236.03
2022-11-29T00:26:34.580Z,100237.84
2022-11-29T00:29:01.131Z,100242.16
2022-11-29T00:31:31.322Z,100236.09
2022-11-29T00:33:59.816Z,100233.50
2022-11-29T00:36:27.841Z,100240.66
2022-11-29T00:38:55.493Z,100231.91
2022-11-29T00:41:23.485Z,100219.69
2022-11-29T00:43:50.310Z,100222.28
2022-11-29T00:46:18.480Z,100230.91
2022-11-29T00:48:45.499Z,100226.59
2022-11-29T00:51:12.791Z,100234.44
2022-11-29T00:53:39.427Z,100223.88
2022-11-29T00:56:08.248Z,100236.19
2022-11-29T00:58:36.183Z,100230.00
2022-11-29T01:01:03.597Z,100231.72
2022-11-29T01:03:32.142Z,100226.47
2022-11-29T01:06:08.224Z,100225.59
2022-11-29T01:08:34.955Z,100224.75
2022-11-29T01:11:10.842Z,100222.94
2022-11-29T01:13:37.650Z,100228.88
2022-11-29T01:16:05.783Z,100234.94
2022-11-29T01:18:33.165Z,100235.78
2022-11-29T01:21:07.515Z,100229.69
2022-11-29T01:23:35.461Z,100225.41
2022-11-29T01:26:08.155Z,100229.66
2022-11-29T01:28:35.596Z,100230.53
2022-11-29T01:31:14.064Z,100225.22
2022-11-29T01:33:41.284Z,100237.38
2022-11-29T01:36:16.762Z,100226.88
2022-11-29T01:38:46.229Z,100232.19
2022-11-29T01:41:15.912Z,100237.31
2022-11-29T01:44:20.949Z,100232.19
2022-11-29T01:46:49.351Z,100227.94
2022-11-29T01:49:32.476Z,100226.94
2022-11-29T01:52:10.447Z,100227.78
2022-11-29T01:54:43.884Z,100230.38
2022-11-29T01:57:12.691Z,100233.88
2022-11-29T01:59:45.965Z,100226.09
2022-11-29T02:02:18.131Z,100230.28
2022-11-29T02:04:46.366Z,100225.13
2022-11-29T02:07:13.475Z,100221.69
2022-11-29T02:09:41.347Z,100216.31
2022-11-29T02:12:25.837Z,100230.97
2022-11-29T02:14:58.756Z,100221.34
2022-11-29T02:17:37.633Z,100226.53
2022-11-29T02:20:25.767Z,100228.38
2022-11-29T02:23:30.083Z,100230.94
2022-11-29T02:26:18.679Z,100218.75
2022-11-29T02:28:57.327Z,100221.34
2022-11-29T02:31:35.915Z,100230.16
2022-11-29T02:34:38.944Z,100230.97
2022-11-29T02:37:44.346Z,100232.69
2022-11-29T02:40:10.881Z,100238.72
2022-11-29T02:42:55.815Z,100236.13
2022-11-29T02:46:03.543Z,100234.44
2022-11-29T02:48:51.137Z,100234.59
2022-11-29T02:51:33.120Z,100238.09
2022-11-29T02:54:49.061Z,100252.81
2022-11-29T02:57:31.863Z,100256.25
2022-11-29T03:00:25.088Z,100253.72
2022-11-29T03:02:51.691Z,100253.72
2022-11-29T03:05:29.622Z,100252.09
2022-11-29T03:08:12.572Z,100253.88
2022-11-29T03:10:50.382Z,100261.66
2022-11-29T03:13:25.039Z,100265.25
2022-11-29T03:15:59.885Z,100255.81
2022-11-29T03:18:47.813Z,100261.06
2022-11-29T03:21:34.706Z,100260.31
2022-11-29T03:24:11.838Z,100260.31
2022-11-29T03:26:49.535Z,100270.81
2022-11-29T03:29:31.631Z,100269.91
2022-11-29T03:32:07.632Z,100267.38
2022-11-29T03:35:12.891Z,100259.72
2022-11-29T03:38:24.261Z,100261.50
2022-11-29T03:41:25.058Z,100263.28
2022-11-29T03:44:20.814Z,100263.34
2022-11-29T03:47:01.447Z,100269.53
2022-11-29T03:50:04.667Z,100272.19
2022-11-29T03:52:49.045Z,100271.34
2022-11-29T03:55:57.597Z,100272.25
2022-11-29T03:58:27.076Z,100270.53
2022-11-29T04:01:16.339Z,100264.47
2022-11-29T04:04:20.441Z,100271.47
2022-11-29T04:06:57.172Z,100267.25
2022-11-29T04:09:52.306Z,100269.00
2022-11-29T04:12:47.971Z,100274.28
2022-11-29T04:15:49.603Z,100277.78
2022-11-29T04:19:04.242Z,100270.00
2022-11-29T04:21:54.942Z,100269.25
2022-11-29T04:24:38.323Z,100280.56
2022-11-29T04:27:23.199Z,100284.06
2022-11-29T04:30:13.457Z,100286.69
2022-11-29T04:32:54.966Z,100292.91
2022-11-29T04:36:01.534Z,100295.56
2022-11-29T04:38:57.751Z,100287.84
2022-11-29T04:42:04.616Z,100295.75
2022-11-29T04:44:59.427Z,100299.41
2022-11-29T04:47:56.524Z,100291.56
2022-11-29T04:50:42.793Z,100299.53
2022-11-29T04:53:31.157Z,100303.81
2022-11-29T04:56:33.052Z,100305.66
2022-11-29T04:59:10.185Z,100297.00
2022-11-29T05:01:54.665Z,100310.91
2022-11-29T05:04:28.230Z,100304.84
2022-11-29T05:07:13.644Z,100307.47
2022-11-29T05:09:55.295Z,100307.59
2022-11-29T05:12:38.772Z,100310.13
2022-11-29T05:15:28.120Z,100315.25
2022-11-29T05:18:07.778Z,100314.53
2022-11-29T05:20:52.089Z,100315.25
2022-11-29T05:23:45.223Z,100323.88
2022-11-29T05:26:31.641Z,100323.03
2022-11-29T05:29:28.057Z,100322.06
2022-11-29T05:32:33.093Z,100320.31
2022-11-29T05:35:10.414Z,100325.50
2022-11-29T05:37:44.342Z,100323.69
2022-11-29T05:40:45.245Z,100322.72
2022-11-29T05:43:21.325Z,100328.03
2022-11-29T05:46:02.184Z,100327.84
2022-11-29T05:48:37.549Z,100325.19
2022-11-29T05:51:12.692Z,100329.53
2022-11-29T05:54:04.167Z,100333.03
2022-11-29T05:56:55.022Z,100333.09
2022-11-29T05:59:27.343Z,100337.50
2022-11-29T06:02:24.993Z,100335.81
2022-11-29T06:05:13.707Z,100345.25
2022-11-29T06:07:55.625Z,100338.53
2022-11-29T06:10:30.456Z,100356.72
2022-11-29T06:13:27.961Z,100355.03
2022-11-29T06:16:12.017Z,100363.91
2022-11-29T06:19:04.111Z,100351.81
2022-11-29T06:21:40.856Z,100357.97
2022-11-29T06:24:25.993Z,100362.38
2022-11-29T06:27:17.657Z,100364.97
2022-11-29T06:30:09.435Z,100376.34
2022-11-29T06:33:01.788Z,100372.19
2022-11-29T06:35:33.519Z,100371.53
2022-11-29T06:38:09.069Z,100377.66
2022-11-29T06:40:36.244Z,100383.94
2022-11-29T06:43:03.191Z,100377.00
2022-11-29T06:45:31.267Z,100378.81
2022-11-29T06:48:05.243Z,100380.63
2022-11-29T06:50:37.663Z,100384.22
2022-11-29T06:53:49.099Z,100385.25
2022-11-29T06:56:26.551Z,100387.88
2022-11-29T06:59:06.268Z,100393.25
2022-11-29T07:02:01.901Z,100385.50
2022-11-29T07:05:09.703Z,100382.22
2022-11-29T07:07:36.876Z,100383.28
2022-11-29T07:10:13.471Z,100388.50
2022-11-29T07:12:43.399Z,100379.97
2022-11-29T07:15:14.873Z,100384.38
2022-11-29T07:18:04.240Z,100387.13
2022-11-29T07:20:54.662Z,100387.25
2022-11-29T07:23:36.306Z,100393.28
2022-11-29T07:26:31.793Z,100390.88
2022-11-29T07:29:19.884Z,100392.69
2022-11-29T07:32:16.654Z,100393.75
2022-11-29T07:35:12.386Z,100393.84
2022-11-29T07:37:58.108Z,100394.81
2022-11-29T07:41:08.424Z,100390.34
2022-11-29T07:43:59.569Z,100394.81
2022-11-29T07:46:28.655Z,100394.16
2022-11-29T07:48:55.429Z,100404.63
2022-11-29T07:51:22.238Z,100402.09
2022-11-29T07:53:48.929Z,100402.22
2022-11-29T07:56:16.551Z,100400.72
2022-11-29T07:58:44.267Z,100401.84
2022-11-29T08:01:10.968Z,100408.03
2022-11-29T08:03:37.825Z,100408.97
2022-11-29T08:06:06.044Z,100415.03
2022-11-29T08:08:37.719Z,100413.59
2022-11-29T08:11:14.291Z,100410.44
2022-11-29T08:13:40.936Z,100414.97
2022-11-29T08:16:07.897Z,100421.00
2022-11-29T08:18:37.909Z,100416.59
2022-11-29T08:21:07.659Z,100419.34
2022-11-29T08:23:34.310Z,100412.41
2022-11-29T08:26:02.490Z,100417.56
2022-11-29T08:28:29.329Z,100415.03
2022-11-29T08:31:03.974Z,100419.50
2022-11-29T08:33:30.870Z,100422.38
2022-11-29T08:36:03.733Z,100428.34
2022-11-29T08:38:30.472Z,100426.56
2022-11-29T08:41:05.224Z,100424.59
2022-11-29T08:43:32.706Z,100430.03
2022-11-29T08:45:59.632Z,100425.06
2022-11-29T08:48:26.723Z,100430.50
2022-11-29T08:50:55.513Z,100428.97
2022-11-29T08:53:46.480Z,100433.44
2022-11-29T08:59:06.105Z,100436.84
2022-11-29T09:01:32.903Z,100430.94
2022-11-29T09:03:59.689Z,100432.59
2022-11-29T09:06:32.071Z,100436.84
2022-11-29T09:08:59.901Z,100438.72
2022-11-29T09:11:29.443Z,100443.09
2022-11-29T09:13:58.778Z,100448.38
2022-11-29T09:16:27.752Z,100443.19
2022-11-29T09:18:56.157Z,100439.13
2022-11-29T09:21:26.260Z,100443.56
2022-11-29T09:23:58.897Z,100441.81
2022-11-29T09:26:32.906Z,100449.56
2022-11-29T09:29:02.063Z,100444.47
2022-11-29T09:31:30.382Z,100445.53
2022-11-29T09:33:57.619Z,100447.13
2022-11-29T09:36:28.790Z,100443.56
2022-11-29T09:38:56.428Z,100449.63
2022-11-29T09:41:48.335Z,100441.41
2022-11-29T09:44:54.230Z,100452.00
2022-11-29T09:47:45.474Z,100439.13
2022-11-29T09:50:34.697Z,100448.44
2022-11-29T09:53:17.041Z,100449.31
2022-11-29T09:55:56.284Z,100452.06
2022-11-29T09:58:27.336Z,100453.84
2022-11-29T10:01:02.821Z,100452.63
2022-11-29T10:03:44.720Z,100448.25
2022-11-29T10:06:19.389Z,100463.56
2022-11-29T10:08:52.904Z,100456.53
2022-11-29T10:11:29.954Z,100456.63
2022-11-29T10:14:20.887Z,100455.84
2022-11-29T10:16:58.207Z,100453.47
2022-11-29T10:19:33.492Z,100453.84
2022-11-29T10:22:39.088Z,100454.72
2022-11-29T10:25:09.905Z,100446.38
2022-11-29T10:27:40.519Z,100448.38
2022-11-29T10:30:18.300Z,100446.09
2022-11-29T10:32:48.700Z,100448.25
2022-11-29T10:35:18.125Z,100448.53
2022-11-29T10:38:01.396Z,100450.66
2022-11-29T10:40:34.912Z,100458.50
2022-11-29T10:43:02.466Z,100450.66
2022-11-29T10:45:40.730Z,100458.50
2022-11-29T10:48:14.383Z,100451.50
2022-11-29T10:50:44.959Z,100452.34
2022-11-29T10:53:15.195Z,100453.88
2022-11-29T10:56:22.530Z,100453.09
2022-11-29T10:59:19.018Z,100449.78
2022-11-29T11:01:45.862Z,100444.28
2022-11-29T11:04:44.566Z,100442.47
2022-11-29T11:07:25.102Z,100441.66
2022-11-29T11:09:56.779Z,100438.94
2022-11-29T11:12:34.936Z,100437.53
2022-11-29T11:15:29.312Z,100436.03
2022-11-29T11:18:01.681Z,100445.53
2022-11-29T11:20:30.784Z,100429.00
2022-11-29T11:23:06.793Z,100434.44
2022-11-29T11:25:42.155Z,100432.97
2022-11-29T11:28:21.997Z,100440.09
2022-11-29T11:30:59.299Z,100436.75
2022-11-29T11:33:29.697Z,100437.78
2022-11-29T11:36:04.328Z,100440.41
2022-11-29T11:38:32.092Z,100437.84
2022-11-29T11:41:50.997Z,100441.19
2022-11-29T11:44:48.079Z,100439.78
2022-11-29T11:47:21.685Z,100444.16
2022-11-29T11:49:50.056Z,100441.44
2022-11-29T11:52:32.948Z,100440.44
2022-11-29T11:55:07.674Z,100445.53
2022-11-29T11:57:35.481Z,100441.19
2022-11-29T12:00:07.002Z,100445.69
2022-11-29T12:02:40.583Z,100454.63
2022-11-29T12:05:22.125Z,100456.81
2022-11-29T12:08:09.825Z,100452.66
2022-11-29T12:10:40.555Z,100461.75
2022-11-29T12:13:17.616Z,100467.22
2022-11-29T12:15:47.605Z,100463.50
2022-11-29T12:18:17.896Z,100465.09
2022-11-29T12:20:51.237Z,100463.59
2022-11-29T12:23:30.654Z,100464.50
2022-11-29T12:26:19.139Z,100462.97
2022-11-29T12:28:58.930Z,100457.94
2022-11-29T12:31:50.123Z,100460.75
2022-11-29T12:34:45.794Z,100458.16
2022-11-29T12:37:26.426Z,100452.19
2022-11-29T12:40:32.025Z,100457.41
2022-11-29T12:43:24.936Z,100459.88
2022-11-29T12:46:31.296Z,100461.03
2022-11-29T12:49:01.143Z,100462.19
2022-11-29T12:52:19.106Z,100463.81
2022-11-29T12:55:21.025Z,100466.94
2022-11-29T12:58:06.101Z,100464.25
2022-11-29T13:00:42.049Z,100471.19
2022-11-29T13:03:40.466Z,100472.69
2022-11-29T13:06:34.325Z,100483.25
2022-11-29T13:09:03.410Z,100475.41
2022-11-29T13:11:35.786Z,100481.53
2022-11-29T13:14:44.130Z,100475.22
2022-11-29T13:17:34.389Z,100482.25
2022-11-29T13:20:25.627Z,100484.50
2022-11-29T13:23:01.326Z,100482.75
2022-11-29T13:25:35.951Z,100480.94
2022-11-29T13:28:11.679Z,100484.50
2022-11-29T13:30:39.790Z,100485.41
2022-11-29T13:33:18.032Z,100492.44
2022-11-29T13:35:56.733Z,100486.31
2022-11-29T13:38:50.954Z,100483.50
2022-11-29T13:41:29.558Z,100492.06
2022-11-29T13:44:08.982Z,100499.03
2022-11-29T13:46:41.475Z,100499.91
2022-11-29T13:49:20.760Z,100493.81
2022-11-29T13:51:47.891Z,100503.28
2022-11-29T13:54:30.006Z,100506.75
2022-11-29T13:57:08.087Z,100504.00
2022-11-29T13:59:47.126Z,100511.84
2022-11-29T14:02:30.455Z,100516.28
2022-11-29T14:04:57.648Z,100511.03
2022-11-29T14:07:24.356Z,100511.81
2022-11-29T14:10:07.238Z,100523.97
2022-11-29T14:12:56.893Z,100523.09
2022-11-29T14:15:37.499Z,100526.50
2022-11-29T14:18:09.370Z,100527.25
2022-11-29T14:20:54.994Z,100535.03
2022-11-29T14:23:36.648Z,100532.38
2022-11-29T14:26:05.976Z,100528.03
2022-11-29T14:28:39.441Z,100527.97
2022-11-29T14:31:07.770Z,100529.63
2022-11-29T14:34:07.230Z,100543.59
2022-11-29T14:36:45.809Z,100540.97
2022-11-29T14:39:38.553Z,100542.75
2022-11-29T14:42:14.755Z,100539.22
2022-11-29T14:44:47.298Z,100541.81
2022-11-29T14:47:25.245Z,100550.53
2022-11-29T14:49:54.223Z,100540.06
2022-11-29T14:52:29.835Z,100543.50
2022-11-29T14:55:01.041Z,100549.63
2022-11-29T14:57:58.750Z,100553.13
2022-11-29T15:00:28.449Z,100553.94
2022-11-29T15:03:13.938Z,100554.78
2022-11-29T15:05:45.352Z,100560.00
2022-11-29T15:08:20.543Z,100559.97
2022-11-29T15:10:53.458Z,100558.16
2022-11-29T15:13:48.588Z,100567.66
2022-11-29T15:16:15.474Z,100570.31
2022-11-29T15:19:08.749Z,100573.97
2022-11-29T15:21:35.327Z,100565.75
2022-11-29T15:24:09.391Z,100564.88
2022-11-29T15:26:36.022Z,100569.13
2022-11-29T15:29:18.723Z,100569.63
2022-11-29T15:31:52.529Z,100575.56
2022-11-29T15:34:45.298Z,100569.69
2022-11-29T15:37:43.541Z,100575.97
2022-11-29T15:40:18.789Z,100579.97
2022-11-29T15:43:00.155Z,100581.66
2022-11-29T15:45:31.458Z,100573.63
2022-11-29T15:48:21.963Z,100580.34
2022-11-29T15:51:11.087Z,100584.44
2022-11-29T15:53:47.438Z,100586.03
2022-11-29T15:56:16.692Z,100592.78
2022-11-29T15:58:45.103Z,100587.59
2022-11-29T16:01:22.275Z,100594.38
2022-11-29T16:03:53.902Z,100594.44
2022-11-29T16:06:23.478Z,100597.75
2022-11-29T16:08:52.098Z,100596.78
2022-11-29T16:11:22.784Z,100598.38
2022-11-29T16:14:18.387Z,100598.25
2022-11-29T16:16:47.556Z,100595.56
2022-11-29T16:19:33.455Z,100593.50
2022-11-29T16:22:14.616Z,100594.53
2022-11-29T16:25:16.684Z,100600.47
2022-11-29T16:27:43.799Z,100600.41
2022-11-29T16:30:22.059Z,100605.59
2022-11-29T16:33:18.025Z,100597.91
2022-11-29T16:35:44.666Z,100591.81
2022-11-29T16:38:22.813Z,100603.97
2022-11-29T16:41:21.355Z,100602.00
2022-11-29T16:43:57.642Z,100602.13
2022-11-29T16:46:26.932Z,100606.31
2022-11-29T16:48:55.402Z,100607.63
2022-11-29T16:51:23.886Z,100619.03
2022-11-29T16:54:20.082Z,100606.84
2022-11-29T16:56:46.852Z,100617.16
2022-11-29T16:59:20.978Z,100621.53
2022-11-29T17:01:55.053Z,100623.28
2022-11-29T17:04:23.421Z,100624.97
2022-11-29T17:06:54.456Z,100629.19
2022-11-29T17:09:27.335Z,100624.78
2022-11-29T17:11:55.842Z,100630.84
2022-11-29T17:14:22.585Z,100628.16
2022-11-29T17:16:49.894Z,100637.59
2022-11-29T17:19:16.996Z,100633.09
2022-11-29T17:21:44.953Z,100631.19
2022-11-29T17:24:13.986Z,100640.69
2022-11-29T17:26:41.263Z,100636.97
2022-11-29T17:29:09.651Z,100635.09
2022-11-29T17:31:36.349Z,100637.69
2022-11-29T17:34:03.688Z,100633.97
2022-11-29T17:36:30.826Z,100634.66
2022-11-29T17:38:59.680Z,100644.22
2022-11-29T17:41:28.726Z,100638.63
2022-11-29T17:43:56.707Z,100643.03
2022-11-29T17:46:26.572Z,100648.94
2022-11-29T17:48:55.012Z,100651.34
2022-11-29T17:51:50.636Z,100659.91
2022-11-29T17:54:11.213Z,100657.94
2022-11-29T17:56:38.031Z,100659.63
2022-11-29T17:59:08.236Z,100655.00
2022-11-29T18:01:36.317Z,100655.75
2022-11-29T18:04:06.523Z,100659.19
2022-11-29T18:06:39.953Z,100661.50
2022-11-29T18:09:09.783Z,100662.19
2022-11-29T18:11:47.973Z,100667.19
2022-11-29T18:14:29.079Z,100666.38
2022-11-29T18:16:55.757Z,100673.06
2022-11-29T18:19:23.501Z,100678.41
2022-11-29T18:21:51.361Z,100679.16
2022-11-29T18:24:18.410Z,100679.03
2022-11-29T18:26:45.486Z,100679.88
2022-11-29T18:29:12.415Z,100680.63
2022-11-29T18:31:43.057Z,100683.00
2022-11-29T18:34:12.626Z,100683.84
2022-11-29T18:36:48.993Z,100680.13
2022-11-29T18:39:19.601Z,100686.00
2022-11-29T18:41:50.616Z,100683.94
2022-11-29T18:44:21.678Z,100683.91
2022-11-29T18:46:49.707Z,100688.13
2022-11-29T18:49:18.271Z,100694.91
2022-11-29T18:51:46.851Z,100682.56
2022-11-29T18:54:16.891Z,100697.91
2022-11-29T18:56:46.283Z,100693.47
2022-11-29T18:59:18.054Z,100705.31
2022-11-29T19:01:47.652Z,100703.47
2022-11-29T19:04:20.038Z,100699.09
2022-11-29T19:06:47.468Z,100710.16
2022-11-29T19:09:21.502Z,100713.44
2022-11-29T19:11:54.561Z,100714.31
2022-11-29T19:14:22.414Z,100707.28
2022-11-29T19:16:50.116Z,100716.72
2022-11-29T19:21:59.875Z,100713.75
2022-11-29T19:24:26.620Z,100719.75
2022-11-29T19:26:55.896Z,100718.59
2022-11-29T19:29:23.379Z,100721.03
2022-11-29T19:31:50.547Z,100724.22
2022-11-29T19:34:17.198Z,100724.13
2022-11-29T19:36:44.905Z,100723.06
2022-11-29T19:39:14.612Z,100730.66
2022-11-29T19:41:43.607Z,100731.25
2022-11-29T19:44:10.683Z,100731.69
2022-11-29T19:46:43.679Z,100729.50
2022-11-29T19:49:13.130Z,100730.09
2022-11-29T19:51:39.858Z,100736.59
2022-11-29T19:54:09.416Z,100729.16
2022-11-29T19:56:36.226Z,100734.06
2022-11-29T19:59:02.931Z,100739.91
2022-11-29T20:01:40.096Z,100735.13
2022-11-29T20:04:08.141Z,100746.22
2022-11-29T20:06:34.766Z,100745.00
2022-11-29T20:09:02.293Z,100739.34
2022-11-29T20:11:29.617Z,100735.72
2022-11-29T20:14:01.414Z,100742.59
2022-11-29T20:16:29.715Z,100735.56
2022-11-29T20:18:57.963Z,100742.50
2022-11-29T20:21:34.004Z,100747.34
2022-11-29T20:24:10.401Z,100745.28
2022-11-29T20:26:39.489Z,100742.59
2022-11-29T20:29:08.421Z,100749.22
2022-11-29T20:31:37.303Z,100754.88
2022-11-29T20:34:04.520Z,100751.16
2022-11-29T20:36:58.011Z,100749.78
2022-11-29T20:39:52.333Z,100757.06
2022-11-29T20:42:44.513Z,100755.69
2022-11-29T20:45:13.637Z,100767.63
2022-11-29T20:59:17.498Z,100762.06
2022-11-29T21:01:44.118Z,100765.47
2022-11-29T21:04:10.766Z,100766.09
2022-11-29T21:06:38.974Z,100774.69
2022-11-29T21:09:06.102Z,100776.09
2022-11-29T21:11:33.049Z,100779.22
2022-11-29T21:14:04.399Z,100781.72
2022-11-29T21:16:31.892Z,100777.28
2022-11-29T21:19:01.254Z,100785.84
2022-11-29T21:21:30.840Z,100783.72
2022-11-29T21:24:30.944Z,100779.34
2022-11-29T21:26:57.777Z,100780.31
2022-11-29T21:29:24.768Z,100771.50
2022-11-29T21:31:54.048Z,100776.69
2022-11-29T21:34:21.616Z,100781.75
2022-11-29T21:36:59.812Z,100775.69
2022-11-29T21:39:33.989Z,100774.63
2022-11-29T21:42:00.622Z,100781.34
2022-11-29T21:44:27.191Z,100781.56
2022-11-29T21:46:53.858Z,100787.91
2022-11-29T21:49:20.673Z,100782.84
2022-11-29T21:51:47.315Z,100790.31
2022-11-29T21:54:13.929Z,100786.03
2022-11-29T21:56:40.583Z,100779.81
2022-11-29T21:59:07.308Z,100784.78
2022-11-29T22:01:34.083Z,100788.09
2022-11-29T22:04:01.085Z,100784.50
2022-11-29T22:06:29.769Z,100791.50
2022-11-29T22:08:57.048Z,100786.22
2022-11-29T22:11:36.476Z,100775.63
2022-11-29T22:14:15.441Z,100778.13
2022-11-29T22:16:51.351Z,100776.41
2022-11-29T22:19:20.660Z,100788.47
2022-11-29T22:21:51.437Z,100782.38
2022-11-29T22:24:20.172Z,100787.66
2022-11-29T22:26:49.844Z,100782.19
2022-11-29T22:29:17.190Z,100784.69
2022-11-29T22:31:45.974Z,100785.59
2022-11-29T22:34:14.300Z,100783.00
2022-11-29T22:36:41.813Z,100789.00
2022-11-29T22:39:09.436Z,100784.50
2022-11-29T22:41:37.549Z,100784.59
2022-11-29T22:44:05.110Z,100787.91
2022-11-29T22:46:32.314Z,100791.50
2022-11-29T22:49:00.683Z,100791.59
2022-11-29T22:51:35.928Z,100796.56
2022-11-29T22:54:06.506Z,100795.56
2022-11-29T22:56:36.080Z,100798.25
2022-11-29T22:59:02.982Z,100790.41
2022-11-29T23:01:31.678Z,100788.63
2022-11-29T23:04:00.149Z,100789.53
2022-11-29T23:06:32.512Z,100788.53
2022-11-29T23:09:03.877Z,100778.38
2022-11-29T23:11:31.134Z,100790.31
2022-11-29T23:13:57.759Z,100783.28
2022-11-29T23:16:27.225Z,100786.75
2022-11-29T23:18:55.541Z,100790.31
2022-11-29T23:21:24.728Z,100793.63
2022-11-29T23:23:56.286Z,100790.16
2022-11-29T23:26:36.601Z,100790.06
2022-11-29T23:29:05.148Z,100791.66
2022-11-29T23:31:32.171Z,100789.88
2022-11-29T23:33:58.824Z,100794.06
2022-11-29T23:36:25.834Z,100792.19
2022-11-29T23:38:52.616Z,100793.00
2022-11-29T23:41:20.400Z,100792.19
2022-11-29T23:43:46.976Z,100790.13
2022-11-29T23:46:16.786Z,100798.78
2022-11-29T23:48:46.305Z,100799.50
2022-11-29T23:51:13.629Z,100796.91
2022-11-29T23:53:40.652Z,100800.19
2022-11-29T23:56:13.207Z,100797.53
2022-11-29T23:58:39.960Z,100797.44
